sensor_id;sensor_type;location;lat;lon;timestamp;temperature;humidity
26595;DHT22;14238;49.496;8.154;2024-02-04T00:01:17;8.60;99.90
26595;DHT22;14238;49.496;8.154;2024-02-04T00:03:42;8.70;99.90
26595;DHT22;14238;49.496;8.154;2024-02-04T00:06:08;8.70;99.90
26595;DHT22;14238;49.496;8.154;2024-02-04T00:08:33;8.70;99.90
26595;DHT22;14238;49.496;8.154;2024-02-04T00:10:59;8.70;99.90
26595;DHT22;14238;49.496;8.154;2024-02-04T00:13:24;8.80;99.90
26595;DHT22;14238;49.496;8.154;2024-02-04T00:15:50;8.80;99.90
26595;DHT22;14238;49.496;8.154;2024-02-04T00:18:19;8.80;99.90
26595;DHT22;14238;49.496;8.154;2024-02-04T00:20:45;8.70;99.90
26595;DHT22;14238;49.496;8.154;2024-02-04T00:25:36;8.60;99.90
26595;DHT22;14238;49.496;8.154;2024-02-04T00:45:04;8.80;99.90
26595;DHT22;14238;49.496;8.154;2024-02-04T00:47:30;8.70;99.90
26595;DHT22;14238;49.496;8.154;2024-02-04T00:49:57;8.70;99.90
26595;DHT22;14238;49.496;8.154;2024-02-04T00:52:22;8.70;99.90
26595;DHT22;14238;49.496;8.154;2024-02-04T00:54:48;8.70;99.90
26595;DHT22;14238;49.496;8.154;2024-02-04T00:57:14;8.60;99.90
26595;DHT22;14238;49.496;8.154;2024-02-04T00:59:39;8.70;99.90
26595;DHT22;14238;49.496;8.154;2024-02-04T01:02:05;8.70;99.90
26595;DHT22;14238;49.496;8.154;2024-02-04T01:04:30;8.60;99.90
26595;DHT22;14238;49.496;8.154;2024-02-04T01:06:57;8.60;99.90
26595;DHT22;14238;49.496;8.154;2024-02-04T01:09:23;8.60;99.90
26595;DHT22;14238;49.496;8.154;2024-02-04T01:11:48;8.60;99.90
26595;DHT22;14238;49.496;8.154;2024-02-04T01:14:14;8.60;99.90
26595;DHT22;14238;49.496;8.154;2024-02-04T01:16:39;8.60;99.90
26595;DHT22;14238;49.496;8.154;2024-02-04T01:19:05;8.50;99.90
26595;DHT22;14238;49.496;8.154;2024-02-04T01:21:30;8.50;99.90
26595;DHT22;14238;49.496;8.154;2024-02-04T01:23:56;8.50;99.90
26595;DHT22;14238;49.496;8.154;2024-02-04T01:26:21;8.50;99.90
26595;DHT22;14238;49.496;8.154;2024-02-04T01:28:49;8.50;99.90
26595;DHT22;14238;49.496;8.154;2024-02-04T01:31:15;8.50;99.90
26595;DHT22;14238;49.496;8.154;2024-02-04T01:33:41;8.50;99.90
26595;DHT22;14238;49.496;8.154;2024-02-04T01:36:06;8.50;99.90
26595;DHT22;14238;49.496;8.154;2024-02-04T01:38:32;8.30;99.90
26595;DHT22;14238;49.496;8.154;2024-02-04T01:40:57;8.40;99.90
26595;DHT22;14238;49.496;8.154;2024-02-04T01:43:23;8.40;99.90
26595;DHT22;14238;49.496;8.154;2024-02-04T01:45:50;8.40;99.90
26595;DHT22;14238;49.496;8.154;2024-02-04T01:48:17;8.40;99.90
26595;DHT22;14238;49.496;8.154;2024-02-04T01:50:43;8.40;99.90
26595;DHT22;14238;49.496;8.154;2024-02-04T01:55:39;8.40;99.90
26595;DHT22;14238;49.496;8.154;2024-02-04T01:58:05;8.50;99.90
26595;DHT22;14238;49.496;8.154;2024-02-04T02:00:31;8.50;99.90
26595;DHT22;14238;49.496;8.154;2024-02-04T02:12:59;8.40;99.90
26595;DHT22;14238;49.496;8.154;2024-02-04T02:15:30;8.50;99.90
26595;DHT22;14238;49.496;8.154;2024-02-04T05:09:36;8.20;99.90
26595;DHT22;14238;49.496;8.154;2024-02-04T05:12:03;8.40;99.90
26595;DHT22;14238;49.496;8.154;2024-02-04T05:31:44;8.10;99.90
26595;DHT22;14238;49.496;8.154;2024-02-04T05:34:14;8.00;99.90
26595;DHT22;14238;49.496;8.154;2024-02-04T05:41:43;8.00;99.90
26595;DHT22;14238;49.496;8.154;2024-02-04T05:46:40;8.00;99.90
26595;DHT22;14238;49.496;8.154;2024-02-04T05:54:00;8.10;99.90
26595;DHT22;14238;49.496;8.154;2024-02-04T05:58:52;8.10;99.90
26595;DHT22;14238;49.496;8.154;2024-02-04T06:03:43;8.10;99.90
26595;DHT22;14238;49.496;8.154;2024-02-04T06:06:14;7.80;99.90
26595;DHT22;14238;49.496;8.154;2024-02-04T06:08:42;8.00;99.90
26595;DHT22;14238;49.496;8.154;2024-02-04T06:13:40;8.00;99.90
26595;DHT22;14238;49.496;8.154;2024-02-04T06:16:05;8.10;99.90
26595;DHT22;14238;49.496;8.154;2024-02-04T06:20:57;8.10;99.90
26595;DHT22;14238;49.496;8.154;2024-02-04T06:23:23;8.10;99.90
26595;DHT22;14238;49.496;8.154;2024-02-04T06:25:48;8.10;99.90
26595;DHT22;14238;49.496;8.154;2024-02-04T06:28:14;8.10;99.90
26595;DHT22;14238;49.496;8.154;2024-02-04T06:30:39;8.10;99.90
26595;DHT22;14238;49.496;8.154;2024-02-04T06:33:05;8.10;99.90
26595;DHT22;14238;49.496;8.154;2024-02-04T06:35:32;8.10;99.90
26595;DHT22;14238;49.496;8.154;2024-02-04T06:37:58;8.10;99.90
26595;DHT22;14238;49.496;8.154;2024-02-04T06:40:23;8.10;99.90
26595;DHT22;14238;49.496;8.154;2024-02-04T06:42:49;8.10;99.90
26595;DHT22;14238;49.496;8.154;2024-02-04T06:45:14;8.00;99.90
26595;DHT22;14238;49.496;8.154;2024-02-04T06:47:43;8.00;99.90
26595;DHT22;14238;49.496;8.154;2024-02-04T06:50:09;7.90;99.90
26595;DHT22;14238;49.496;8.154;2024-02-04T06:52:39;7.90;99.90
26595;DHT22;14238;49.496;8.154;2024-02-04T06:55:05;7.90;99.90
26595;DHT22;14238;49.496;8.154;2024-02-04T06:57:31;7.90;99.90
26595;DHT22;14238;49.496;8.154;2024-02-04T06:59:56;7.70;99.90
26595;DHT22;14238;49.496;8.154;2024-02-04T07:04:50;7.80;99.90
26595;DHT22;14238;49.496;8.154;2024-02-04T07:07:18;7.80;99.90
26595;DHT22;14238;49.496;8.154;2024-02-04T07:09:45;8.00;99.90
26595;DHT22;14238;49.496;8.154;2024-02-04T07:12:11;7.90;99.90
26595;DHT22;14238;49.496;8.154;2024-02-04T07:14:38;7.90;99.90
26595;DHT22;14238;49.496;8.154;2024-02-04T07:17:04;8.00;99.90
26595;DHT22;14238;49.496;8.154;2024-02-04T07:21:55;8.10;99.90
26595;DHT22;14238;49.496;8.154;2024-02-04T07:26:47;8.00;99.90
26595;DHT22;14238;49.496;8.154;2024-02-04T07:31:39;8.00;99.90
26595;DHT22;14238;49.496;8.154;2024-02-04T07:34:07;8.00;99.90
26595;DHT22;14238;49.496;8.154;2024-02-04T07:36:35;7.90;99.90
26595;DHT22;14238;49.496;8.154;2024-02-04T07:39:00;8.10;99.90
26595;DHT22;14238;49.496;8.154;2024-02-04T07:41:28;8.20;99.90
26595;DHT22;14238;49.496;8.154;2024-02-04T07:43:54;8.20;99.90
26595;DHT22;14238;49.496;8.154;2024-02-04T07:46:20;8.20;99.90
26595;DHT22;14238;49.496;8.154;2024-02-04T07:56:05;8.20;99.90
26595;DHT22;14238;49.496;8.154;2024-02-04T07:58:32;8.20;99.90
26595;DHT22;14238;49.496;8.154;2024-02-04T08:03:25;8.10;99.90
26595;DHT22;14238;49.496;8.154;2024-02-04T08:05:50;8.30;99.90
26595;DHT22;14238;49.496;8.154;2024-02-04T08:08:16;8.30;99.90
26595;DHT22;14238;49.496;8.154;2024-02-04T08:10:42;8.50;99.90
26595;DHT22;14238;49.496;8.154;2024-02-04T08:13:07;8.40;99.90
26595;DHT22;14238;49.496;8.154;2024-02-04T08:15:33;8.40;99.90
26595;DHT22;14238;49.496;8.154;2024-02-04T08:17:59;8.60;99.90
26595;DHT22;14238;49.496;8.154;2024-02-04T08:22:52;8.50;99.90
26595;DHT22;14238;49.496;8.154;2024-02-04T08:25:17;8.50;99.90
26595;DHT22;14238;49.496;8.154;2024-02-04T08:27:43;8.60;99.90
26595;DHT22;14238;49.496;8.154;2024-02-04T08:30:09;8.50;99.90
26595;DHT22;14238;49.496;8.154;2024-02-04T08:32:37;8.50;99.90
26595;DHT22;14238;49.496;8.154;2024-02-04T08:35:03;8.60;99.90
26595;DHT22;14238;49.496;8.154;2024-02-04T08:37:29;8.50;99.90
26595;DHT22;14238;49.496;8.154;2024-02-04T08:39:54;8.50;99.90
26595;DHT22;14238;49.496;8.154;2024-02-04T08:42:20;8.50;99.90
26595;DHT22;14238;49.496;8.154;2024-02-04T08:44:45;8.60;99.90
26595;DHT22;14238;49.496;8.154;2024-02-04T08:47:11;8.60;99.90
26595;DHT22;14238;49.496;8.154;2024-02-04T08:49:39;8.70;99.90
26595;DHT22;14238;49.496;8.154;2024-02-04T08:52:04;8.70;99.90
26595;DHT22;14238;49.496;8.154;2024-02-04T08:54:30;8.70;99.90
26595;DHT22;14238;49.496;8.154;2024-02-04T08:56:56;8.80;99.90
26595;DHT22;14238;49.496;8.154;2024-02-04T08:59:21;8.70;99.90
26595;DHT22;14238;49.496;8.154;2024-02-04T09:01:49;8.80;99.90
26595;DHT22;14238;49.496;8.154;2024-02-04T09:04:15;8.90;99.90
26595;DHT22;14238;49.496;8.154;2024-02-04T09:06:41;8.90;99.90
26595;DHT22;14238;49.496;8.154;2024-02-04T09:09:06;9.00;99.90
26595;DHT22;14238;49.496;8.154;2024-02-04T09:11:33;9.00;99.90
26595;DHT22;14238;49.496;8.154;2024-02-04T09:13:59;9.00;99.90
26595;DHT22;14238;49.496;8.154;2024-02-04T09:16:24;8.90;99.90
26595;DHT22;14238;49.496;8.154;2024-02-04T09:18:50;8.80;99.90
26595;DHT22;14238;49.496;8.154;2024-02-04T09:21:15;8.90;99.90
26595;DHT22;14238;49.496;8.154;2024-02-04T09:23:41;8.80;99.90
26595;DHT22;14238;49.496;8.154;2024-02-04T09:26:07;8.80;99.90
26595;DHT22;14238;49.496;8.154;2024-02-04T09:28:32;8.80;99.90
26595;DHT22;14238;49.496;8.154;2024-02-04T09:30:58;8.80;99.90
26595;DHT22;14238;49.496;8.154;2024-02-04T09:33:24;8.80;99.90
26595;DHT22;14238;49.496;8.154;2024-02-04T09:35:49;8.80;99.90
26595;DHT22;14238;49.496;8.154;2024-02-04T09:38:15;8.80;99.90
26595;DHT22;14238;49.496;8.154;2024-02-04T09:40:41;9.00;99.90
26595;DHT22;14238;49.496;8.154;2024-02-04T09:43:06;9.10;99.90
26595;DHT22;14238;49.496;8.154;2024-02-04T09:45:33;9.10;99.90
26595;DHT22;14238;49.496;8.154;2024-02-04T09:47:59;9.10;99.90
26595;DHT22;14238;49.496;8.154;2024-02-04T09:50:26;9.10;99.90
26595;DHT22;14238;49.496;8.154;2024-02-04T09:52:57;9.20;99.90
26595;DHT22;14238;49.496;8.154;2024-02-04T09:55:24;9.10;99.90
26595;DHT22;14238;49.496;8.154;2024-02-04T09:57:50;9.10;99.90
26595;DHT22;14238;49.496;8.154;2024-02-04T10:00:19;9.40;99.90
26595;DHT22;14238;49.496;8.154;2024-02-04T10:02:47;9.40;99.90
26595;DHT22;14238;49.496;8.154;2024-02-04T10:05:13;9.60;99.90
26595;DHT22;14238;49.496;8.154;2024-02-04T10:07:38;9.90;99.90
26595;DHT22;14238;49.496;8.154;2024-02-04T10:10:05;10.10;99.90
26595;DHT22;14238;49.496;8.154;2024-02-04T10:12:31;10.00;99.90
26595;DHT22;14238;49.496;8.154;2024-02-04T10:14:58;9.90;99.90
26595;DHT22;14238;49.496;8.154;2024-02-04T10:17:23;10.10;99.90
26595;DHT22;14238;49.496;8.154;2024-02-04T10:19:50;10.10;99.90
26595;DHT22;14238;49.496;8.154;2024-02-04T10:22:15;9.80;99.90
26595;DHT22;14238;49.496;8.154;2024-02-04T10:24:42;9.50;99.90
26595;DHT22;14238;49.496;8.154;2024-02-04T10:27:10;9.40;99.90
26595;DHT22;14238;49.496;8.154;2024-02-04T10:29:36;9.40;99.90
26595;DHT22;14238;49.496;8.154;2024-02-04T10:32:02;9.70;99.90
26595;DHT22;14238;49.496;8.154;2024-02-04T10:34:28;9.60;99.90
26595;DHT22;14238;49.496;8.154;2024-02-04T10:36:56;9.50;99.90
26595;DHT22;14238;49.496;8.154;2024-02-04T10:39:21;9.40;99.90
26595;DHT22;14238;49.496;8.154;2024-02-04T10:41:51;9.60;99.90
26595;DHT22;14238;49.496;8.154;2024-02-04T10:44:18;9.80;99.90
26595;DHT22;14238;49.496;8.154;2024-02-04T10:46:47;9.70;99.90
26595;DHT22;14238;49.496;8.154;2024-02-04T10:49:14;9.40;99.90
26595;DHT22;14238;49.496;8.154;2024-02-04T10:51:41;9.60;99.90
26595;DHT22;14238;49.496;8.154;2024-02-04T10:54:08;10.00;99.90
26595;DHT22;14238;49.496;8.154;2024-02-04T10:56:41;10.40;99.90
26595;DHT22;14238;49.496;8.154;2024-02-04T10:59:07;10.60;99.90
26595;DHT22;14238;49.496;8.154;2024-02-04T11:01:35;10.40;99.90
26595;DHT22;14238;49.496;8.154;2024-02-04T11:04:02;10.50;99.90
26595;DHT22;14238;49.496;8.154;2024-02-04T11:06:29;10.40;99.90
26595;DHT22;14238;49.496;8.154;2024-02-04T11:08:56;10.10;99.90
26595;DHT22;14238;49.496;8.154;2024-02-04T11:11:24;10.00;99.90
26595;DHT22;14238;49.496;8.154;2024-02-04T11:13:54;10.50;99.90
26595;DHT22;14238;49.496;8.154;2024-02-04T11:16:44;10.20;99.90
26595;DHT22;14238;49.496;8.154;2024-02-04T11:27:40;9.50;99.90
26595;DHT22;14238;49.496;8.154;2024-02-04T11:30:06;9.40;99.90
26595;DHT22;14238;49.496;8.154;2024-02-04T11:32:34;9.30;99.90
26595;DHT22;14238;49.496;8.154;2024-02-04T11:35:00;9.40;99.90
26595;DHT22;14238;49.496;8.154;2024-02-04T11:37:28;9.70;99.90
26595;DHT22;14238;49.496;8.154;2024-02-04T11:39:54;9.70;99.90
26595;DHT22;14238;49.496;8.154;2024-02-04T11:42:23;9.50;99.90
26595;DHT22;14238;49.496;8.154;2024-02-04T11:44:50;9.20;99.90
26595;DHT22;14238;49.496;8.154;2024-02-04T11:47:27;9.30;99.90
26595;DHT22;14238;49.496;8.154;2024-02-04T11:49:57;9.40;99.90
26595;DHT22;14238;49.496;8.154;2024-02-04T11:52:23;9.50;99.90
26595;DHT22;14238;49.496;8.154;2024-02-04T11:54:52;9.90;99.90
26595;DHT22;14238;49.496;8.154;2024-02-04T11:57:17;9.80;99.90
26595;DHT22;14238;49.496;8.154;2024-02-04T11:59:43;10.00;99.90
26595;DHT22;14238;49.496;8.154;2024-02-04T12:02:10;9.80;99.90
26595;DHT22;14238;49.496;8.154;2024-02-04T12:04:37;9.80;99.90
26595;DHT22;14238;49.496;8.154;2024-02-04T12:07:05;10.10;99.90
26595;DHT22;14238;49.496;8.154;2024-02-04T12:09:31;10.10;99.90
26595;DHT22;14238;49.496;8.154;2024-02-04T12:11:57;10.00;99.90
26595;DHT22;14238;49.496;8.154;2024-02-04T12:14:22;9.80;99.90
26595;DHT22;14238;49.496;8.154;2024-02-04T12:16:48;9.90;99.90
26595;DHT22;14238;49.496;8.154;2024-02-04T12:19:14;9.80;99.90
26595;DHT22;14238;49.496;8.154;2024-02-04T12:21:39;9.70;99.90
26595;DHT22;14238;49.496;8.154;2024-02-04T12:24:05;9.60;99.90
26595;DHT22;14238;49.496;8.154;2024-02-04T12:26:31;9.50;99.90
26595;DHT22;14238;49.496;8.154;2024-02-04T12:28:56;9.60;99.90
26595;DHT22;14238;49.496;8.154;2024-02-04T12:31:25;9.60;99.90
26595;DHT22;14238;49.496;8.154;2024-02-04T12:33:55;9.90;99.90
26595;DHT22;14238;49.496;8.154;2024-02-04T12:36:29;9.80;99.90
26595;DHT22;14238;49.496;8.154;2024-02-04T12:38:56;9.60;99.90
26595;DHT22;14238;49.496;8.154;2024-02-04T12:41:22;9.60;99.90
26595;DHT22;14238;49.496;8.154;2024-02-04T12:43:55;9.70;99.90
26595;DHT22;14238;49.496;8.154;2024-02-04T12:46:22;9.70;99.90
26595;DHT22;14238;49.496;8.154;2024-02-04T12:48:55;9.80;99.90
26595;DHT22;14238;49.496;8.154;2024-02-04T12:51:32;10.10;99.90
26595;DHT22;14238;49.496;8.154;2024-02-04T12:54:12;10.20;99.90
26595;DHT22;14238;49.496;8.154;2024-02-04T12:59:32;10.00;99.90
26595;DHT22;14238;49.496;8.154;2024-02-04T13:02:01;10.00;99.90
26595;DHT22;14238;49.496;8.154;2024-02-04T13:04:42;10.00;99.90
26595;DHT22;14238;49.496;8.154;2024-02-04T13:07:12;10.10;99.90
26595;DHT22;14238;49.496;8.154;2024-02-04T13:09:40;10.00;99.90
26595;DHT22;14238;49.496;8.154;2024-02-04T13:12:06;10.00;99.90
26595;DHT22;14238;49.496;8.154;2024-02-04T13:14:34;9.90;99.90
26595;DHT22;14238;49.496;8.154;2024-02-04T13:17:00;9.90;99.90
26595;DHT22;14238;49.496;8.154;2024-02-04T13:19:35;9.90;99.90
26595;DHT22;14238;49.496;8.154;2024-02-04T13:22:02;9.90;99.90
26595;DHT22;14238;49.496;8.154;2024-02-04T13:24:29;9.80;99.90
26595;DHT22;14238;49.496;8.154;2024-02-04T13:26:54;9.80;99.90
26595;DHT22;14238;49.496;8.154;2024-02-04T13:29:20;9.70;99.90
26595;DHT22;14238;49.496;8.154;2024-02-04T13:31:45;9.70;99.90
26595;DHT22;14238;49.496;8.154;2024-02-04T13:34:11;9.70;99.90
26595;DHT22;14238;49.496;8.154;2024-02-04T13:36:36;9.70;99.90
26595;DHT22;14238;49.496;8.154;2024-02-04T13:39:02;9.80;99.90
26595;DHT22;14238;49.496;8.154;2024-02-04T13:41:28;9.70;99.90
26595;DHT22;14238;49.496;8.154;2024-02-04T13:43:53;9.70;99.90
26595;DHT22;14238;49.496;8.154;2024-02-04T13:46:19;9.70;99.90
26595;DHT22;14238;49.496;8.154;2024-02-04T13:48:45;9.60;99.90
26595;DHT22;14238;49.496;8.154;2024-02-04T13:51:11;9.70;99.90
26595;DHT22;14238;49.496;8.154;2024-02-04T13:53:36;9.60;99.90
26595;DHT22;14238;49.496;8.154;2024-02-04T13:56:02;9.70;99.90
26595;DHT22;14238;49.496;8.154;2024-02-04T13:58:28;9.70;99.90
26595;DHT22;14238;49.496;8.154;2024-02-04T14:00:53;9.70;99.90
26595;DHT22;14238;49.496;8.154;2024-02-04T14:03:19;9.70;99.90
26595;DHT22;14238;49.496;8.154;2024-02-04T14:05:45;9.70;99.90
26595;DHT22;14238;49.496;8.154;2024-02-04T14:08:10;9.60;99.90
26595;DHT22;14238;49.496;8.154;2024-02-04T14:10:36;9.60;99.90
26595;DHT22;14238;49.496;8.154;2024-02-04T14:13:02;9.60;99.90
26595;DHT22;14238;49.496;8.154;2024-02-04T14:15:28;9.60;99.90
26595;DHT22;14238;49.496;8.154;2024-02-04T14:17:54;9.50;99.90
26595;DHT22;14238;49.496;8.154;2024-02-04T14:20:19;9.50;99.90
26595;DHT22;14238;49.496;8.154;2024-02-04T14:22:45;9.50;99.90
26595;DHT22;14238;49.496;8.154;2024-02-04T14:25:10;9.50;99.90
26595;DHT22;14238;49.496;8.154;2024-02-04T14:27:38;9.50;99.90
26595;DHT22;14238;49.496;8.154;2024-02-04T14:30:04;9.50;99.90
26595;DHT22;14238;49.496;8.154;2024-02-04T14:32:30;9.50;99.90
26595;DHT22;14238;49.496;8.154;2024-02-04T14:34:56;9.50;99.90
26595;DHT22;14238;49.496;8.154;2024-02-04T14:37:22;9.60;99.90
26595;DHT22;14238;49.496;8.154;2024-02-04T14:39:47;9.60;99.90
26595;DHT22;14238;49.496;8.154;2024-02-04T14:42:14;9.50;99.90
26595;DHT22;14238;49.496;8.154;2024-02-04T14:44:40;9.50;99.90
26595;DHT22;14238;49.496;8.154;2024-02-04T14:47:05;9.50;99.90
26595;DHT22;14238;49.496;8.154;2024-02-04T14:49:31;9.50;99.90
26595;DHT22;14238;49.496;8.154;2024-02-04T14:51:57;9.50;99.90
26595;DHT22;14238;49.496;8.154;2024-02-04T14:54:23;9.50;99.90
26595;DHT22;14238;49.496;8.154;2024-02-04T14:56:48;9.50;99.90
26595;DHT22;14238;49.496;8.154;2024-02-04T14:59:16;9.50;99.90
26595;DHT22;14238;49.496;8.154;2024-02-04T15:01:45;9.50;99.90
26595;DHT22;14238;49.496;8.154;2024-02-04T15:04:14;9.50;99.90
26595;DHT22;14238;49.496;8.154;2024-02-04T15:06:40;9.50;99.90
26595;DHT22;14238;49.496;8.154;2024-02-04T15:09:06;9.50;99.90
26595;DHT22;14238;49.496;8.154;2024-02-04T15:11:32;9.50;99.90
26595;DHT22;14238;49.496;8.154;2024-02-04T15:13:59;9.50;99.90
26595;DHT22;14238;49.496;8.154;2024-02-04T15:16:25;9.50;99.90
26595;DHT22;14238;49.496;8.154;2024-02-04T15:18:51;9.50;99.90
26595;DHT22;14238;49.496;8.154;2024-02-04T15:21:19;9.50;99.90
26595;DHT22;14238;49.496;8.154;2024-02-04T15:23:45;9.50;99.90
26595;DHT22;14238;49.496;8.154;2024-02-04T15:26:11;9.40;99.90
26595;DHT22;14238;49.496;8.154;2024-02-04T15:28:38;9.50;99.90
26595;DHT22;14238;49.496;8.154;2024-02-04T15:31:05;9.50;99.90
26595;DHT22;14238;49.496;8.154;2024-02-04T15:33:30;9.50;99.90
26595;DHT22;14238;49.496;8.154;2024-02-04T15:35:56;9.50;99.90
26595;DHT22;14238;49.496;8.154;2024-02-04T15:38:22;9.40;99.90
26595;DHT22;14238;49.496;8.154;2024-02-04T15:40:47;9.40;99.90
26595;DHT22;14238;49.496;8.154;2024-02-04T15:43:13;9.40;99.90
26595;DHT22;14238;49.496;8.154;2024-02-04T15:45:39;9.40;99.90
26595;DHT22;14238;49.496;8.154;2024-02-04T15:48:05;9.40;99.90
26595;DHT22;14238;49.496;8.154;2024-02-04T15:50:31;9.40;99.90
26595;DHT22;14238;49.496;8.154;2024-02-04T15:52:57;9.40;99.90
26595;DHT22;14238;49.496;8.154;2024-02-04T15:55:23;9.40;99.90
26595;DHT22;14238;49.496;8.154;2024-02-04T15:57:51;9.40;99.90
26595;DHT22;14238;49.496;8.154;2024-02-04T16:00:18;9.40;99.90
26595;DHT22;14238;49.496;8.154;2024-02-04T16:02:50;9.40;99.90
26595;DHT22;14238;49.496;8.154;2024-02-04T16:05:16;9.40;99.90
26595;DHT22;14238;49.496;8.154;2024-02-04T16:07:43;9.40;99.90
26595;DHT22;14238;49.496;8.154;2024-02-04T16:10:11;9.40;99.90
26595;DHT22;14238;49.496;8.154;2024-02-04T16:12:37;9.40;99.90
26595;DHT22;14238;49.496;8.154;2024-02-04T16:15:04;9.30;99.90
26595;DHT22;14238;49.496;8.154;2024-02-04T16:17:37;9.40;99.90
26595;DHT22;14238;49.496;8.154;2024-02-04T16:20:04;9.40;99.90
26595;DHT22;14238;49.496;8.154;2024-02-04T16:22:31;9.30;99.90
26595;DHT22;14238;49.496;8.154;2024-02-04T16:24:56;9.30;99.90
26595;DHT22;14238;49.496;8.154;2024-02-04T16:27:22;9.30;99.90
26595;DHT22;14238;49.496;8.154;2024-02-04T16:29:47;9.30;99.90
26595;DHT22;14238;49.496;8.154;2024-02-04T16:32:14;9.30;99.90
26595;DHT22;14238;49.496;8.154;2024-02-04T16:34:40;9.30;99.90
26595;DHT22;14238;49.496;8.154;2024-02-04T16:37:05;9.30;99.90
26595;DHT22;14238;49.496;8.154;2024-02-04T16:39:36;9.30;99.90
26595;DHT22;14238;49.496;8.154;2024-02-04T16:42:01;9.30;99.90
26595;DHT22;14238;49.496;8.154;2024-02-04T16:44:28;9.20;99.90
26595;DHT22;14238;49.496;8.154;2024-02-04T16:46:54;9.20;99.90
26595;DHT22;14238;49.496;8.154;2024-02-04T16:49:23;9.10;99.90
26595;DHT22;14238;49.496;8.154;2024-02-04T16:51:49;9.10;99.90
26595;DHT22;14238;49.496;8.154;2024-02-04T16:54:15;9.10;99.90
26595;DHT22;14238;49.496;8.154;2024-02-04T16:56:43;9.10;99.90
26595;DHT22;14238;49.496;8.154;2024-02-04T16:59:12;9.10;99.90
26595;DHT22;14238;49.496;8.154;2024-02-04T17:01:37;9.10;99.90
26595;DHT22;14238;49.496;8.154;2024-02-04T17:04:04;9.00;99.90
26595;DHT22;14238;49.496;8.154;2024-02-04T17:06:31;9.00;99.90
26595;DHT22;14238;49.496;8.154;2024-02-04T17:08:57;9.00;99.90
26595;DHT22;14238;49.496;8.154;2024-02-04T17:11:24;9.00;99.90
26595;DHT22;14238;49.496;8.154;2024-02-04T17:13:52;9.00;99.90
26595;DHT22;14238;49.496;8.154;2024-02-04T17:19:06;9.00;99.90
26595;DHT22;14238;49.496;8.154;2024-02-04T17:21:39;8.90;99.90
26595;DHT22;14238;49.496;8.154;2024-02-04T17:24:14;8.90;99.90
26595;DHT22;14238;49.496;8.154;2024-02-04T17:26:40;8.90;99.90
26595;DHT22;14238;49.496;8.154;2024-02-04T17:29:06;8.90;99.90
26595;DHT22;14238;49.496;8.154;2024-02-04T17:31:32;8.90;99.90
26595;DHT22;14238;49.496;8.154;2024-02-04T17:33:59;9.00;99.90
26595;DHT22;14238;49.496;8.154;2024-02-04T17:36:25;8.90;99.90
26595;DHT22;14238;49.496;8.154;2024-02-04T17:38:50;8.90;99.90
26595;DHT22;14238;49.496;8.154;2024-02-04T17:41:19;8.90;99.90
26595;DHT22;14238;49.496;8.154;2024-02-04T17:43:45;8.90;99.90
26595;DHT22;14238;49.496;8.154;2024-02-04T17:46:11;8.90;99.90
26595;DHT22;14238;49.496;8.154;2024-02-04T17:48:36;8.90;99.90
26595;DHT22;14238;49.496;8.154;2024-02-04T17:51:02;8.90;99.90
26595;DHT22;14238;49.496;8.154;2024-02-04T17:53:28;8.90;99.90
26595;DHT22;14238;49.496;8.154;2024-02-04T17:55:54;8.90;99.90
26595;DHT22;14238;49.496;8.154;2024-02-04T17:58:19;8.90;99.90
26595;DHT22;14238;49.496;8.154;2024-02-04T18:00:45;8.90;99.90
26595;DHT22;14238;49.496;8.154;2024-02-04T18:03:11;8.80;99.90
26595;DHT22;14238;49.496;8.154;2024-02-04T18:05:36;8.80;99.90
26595;DHT22;14238;49.496;8.154;2024-02-04T18:08:07;8.80;99.90
26595;DHT22;14238;49.496;8.154;2024-02-04T18:10:33;8.80;99.90
26595;DHT22;14238;49.496;8.154;2024-02-04T18:13:00;8.80;99.90
26595;DHT22;14238;49.496;8.154;2024-02-04T18:15:26;8.80;99.90
26595;DHT22;14238;49.496;8.154;2024-02-04T18:17:52;8.70;99.90
26595;DHT22;14238;49.496;8.154;2024-02-04T18:20:18;8.70;99.90
26595;DHT22;14238;49.496;8.154;2024-02-04T18:22:44;8.80;99.90
26595;DHT22;14238;49.496;8.154;2024-02-04T18:25:11;8.80;99.90
26595;DHT22;14238;49.496;8.154;2024-02-04T18:27:37;8.70;99.90
26595;DHT22;14238;49.496;8.154;2024-02-04T18:30:07;8.70;99.90
26595;DHT22;14238;49.496;8.154;2024-02-04T18:32:32;8.80;99.90
26595;DHT22;14238;49.496;8.154;2024-02-04T18:34:58;8.70;99.90
26595;DHT22;14238;49.496;8.154;2024-02-04T18:37:24;8.70;99.90
26595;DHT22;14238;49.496;8.154;2024-02-04T18:39:49;8.70;99.90
26595;DHT22;14238;49.496;8.154;2024-02-04T18:42:17;8.70;99.90
26595;DHT22;14238;49.496;8.154;2024-02-04T18:44:42;8.80;99.90
26595;DHT22;14238;49.496;8.154;2024-02-04T18:47:09;8.70;99.90
26595;DHT22;14238;49.496;8.154;2024-02-04T18:49:36;8.60;99.90
26595;DHT22;14238;49.496;8.154;2024-02-04T18:52:02;8.60;99.90
26595;DHT22;14238;49.496;8.154;2024-02-04T18:54:27;8.70;99.90
26595;DHT22;14238;49.496;8.154;2024-02-04T18:56:54;8.70;99.90
26595;DHT22;14238;49.496;8.154;2024-02-04T18:59:19;8.70;99.90
26595;DHT22;14238;49.496;8.154;2024-02-04T19:01:45;8.70;99.90
26595;DHT22;14238;49.496;8.154;2024-02-04T19:04:11;8.70;99.90
26595;DHT22;14238;49.496;8.154;2024-02-04T19:06:38;8.70;99.90
26595;DHT22;14238;49.496;8.154;2024-02-04T19:09:05;8.70;99.90
26595;DHT22;14238;49.496;8.154;2024-02-04T19:11:33;8.70;99.90
26595;DHT22;14238;49.496;8.154;2024-02-04T19:13:59;8.60;99.90
26595;DHT22;14238;49.496;8.154;2024-02-04T19:16:25;8.70;99.90
26595;DHT22;14238;49.496;8.154;2024-02-04T19:18:51;8.70;99.90
26595;DHT22;14238;49.496;8.154;2024-02-04T19:21:17;8.70;99.90
26595;DHT22;14238;49.496;8.154;2024-02-04T19:23:43;8.60;99.90
26595;DHT22;14238;49.496;8.154;2024-02-04T19:26:08;8.70;99.90
26595;DHT22;14238;49.496;8.154;2024-02-04T19:28:34;8.70;99.90
26595;DHT22;14238;49.496;8.154;2024-02-04T19:30:59;8.70;99.90
26595;DHT22;14238;49.496;8.154;2024-02-04T19:33:25;8.70;99.90
26595;DHT22;14238;49.496;8.154;2024-02-04T19:35:51;8.70;99.90
26595;DHT22;14238;49.496;8.154;2024-02-04T19:38:16;8.70;99.90
26595;DHT22;14238;49.496;8.154;2024-02-04T19:40:42;8.80;99.90
26595;DHT22;14238;49.496;8.154;2024-02-04T19:43:07;8.80;99.90
26595;DHT22;14238;49.496;8.154;2024-02-04T19:45:33;8.80;99.90
26595;DHT22;14238;49.496;8.154;2024-02-04T19:47:59;8.70;99.90
26595;DHT22;14238;49.496;8.154;2024-02-04T19:50:24;8.60;99.90
26595;DHT22;14238;49.496;8.154;2024-02-04T19:52:50;8.70;99.90
26595;DHT22;14238;49.496;8.154;2024-02-04T19:55:15;8.70;99.90
26595;DHT22;14238;49.496;8.154;2024-02-04T19:57:41;8.70;99.90
26595;DHT22;14238;49.496;8.154;2024-02-04T20:00:07;8.60;99.90
26595;DHT22;14238;49.496;8.154;2024-02-04T20:02:34;8.70;99.90
26595;DHT22;14238;49.496;8.154;2024-02-04T20:07:26;8.50;99.90
26595;DHT22;14238;49.496;8.154;2024-02-04T20:14:46;8.40;99.90
26595;DHT22;14238;49.496;8.154;2024-02-04T20:17:15;8.60;99.90
26595;DHT22;14238;49.496;8.154;2024-02-04T20:22:08;8.30;99.90
26595;DHT22;14238;49.496;8.154;2024-02-04T20:24:34;8.40;99.90
26595;DHT22;14238;49.496;8.154;2024-02-04T20:26:59;8.50;99.90
26595;DHT22;14238;49.496;8.154;2024-02-04T20:29:27;8.40;99.90